Aurora, CO

5:28 AM MST on December 07, 2016 (GMT -0700)
Stone Ridge Park | | Change Station

Elev 5597 ft 39.69 °N, 104.77 °W | Updated 25 seconds ago

Overcast
Overcast
13.6 °F
Feels Like 14 °F
N
2.0
Wind Variable Wind from East

Today
High -- | Low -- °F
--% Chance of Precip.
Yesterday
High -- | Low -- °F
Precip. -- in
Pressure 30.09 in
Visibility 10.0 miles
Clouds Overcast 800 ft
Windchill 14 °F
Dew Point 12 °F
Humidity 93%
Rainfall 0.00 in
Snow Depth Not available.
7:06 AM 4:34 PM
First Quarter, 52% visible
METAR KBKF 071158Z 10006KT 10SM OVC008 M10/M11 A2996 RMK AO2A SLP190 60001 70002 T11001109 11089 21120 53017 52021
Pressure 30.09 in
Visibility 10.0 miles
Clouds Overcast 800 ft
Windchill 14 °F
Dew Point 12 °F
Humidity 93%
Rainfall 0.00 in
Snow Depth Not available.
7:06 AM 4:34 PM
First Quarter, 52% visible
METAR KBKF 071158Z 10006KT 10SM OVC008 M10/M11 A2996 RMK AO2A SLP190 60001 70002 T11001109 11089 21120 53017 52021

10-Day Weather Forecast

Almanac

Astronomy

Dec. 07, 2016 Rise Set
Actual Time
Civil Twilight
Nautical Twilight
Astronomical Twilight
Moon
Length of Visible Light
Length of Day
Tomorrow will be .
, % of the Moon is Illuminated

Today's Extremes

State Highs State Lows

Community

WunderPhotos

Upload Photos

1,956,111 photos uploaded!

WunderBlog® & News

Nearby

Air Quality

  Air Quality AQ Index Pollutant
Not available.

Snow Depth

Station Depth Elevation

Earthquake Activity

City Distance Mag. Time & Date
Minimum magnitude displayed is 2.5.

Coastal Water Temperatures

Place Temperature

Stations

Nearby Weather Stations

Station Location Temp. Windchill Dew Point Humidity Wind Precip. Elev Updated Type
                   

Watches & Warnings

Winter Weather Advisory
Issued: 4:12 AM MST Dec. 7, 2016 – National Weather Service

... Winter Weather Advisory remains in effect until noon MST
today...

* timing... snow will be decreasing through this morning

* snow accumulations... an additional one half to one inch is
expected for a storm total of 2 to 5 inches with higher amounts
west of I-25.

* Impacts... travel will be hazardous due to snowpacked roads and
reduced visibility.

Precautionary/preparedness actions...

A Winter Weather Advisory for snow means that periods of snow
will cause primarily travel difficulties. Be prepared for snow
covered roads and limited visibilities... and use caution while
driving.